Time;durP1;ratioP1;P1;durP2;ratioP2;P2;SDS_P1;SDS_P2;PMS_P1;PMS_P2;Temp;Humidity;BMP_temperature;BMP_pressure;BME280_temperature;BME280_humidity;BME280_pressure;Samples;Min_cycle;Max_cycle;Signal;HPM_P1;HPM_P2
2022/03/10 00:01:30;;;;;;;13.30;12.00;;;;;;;4.60;63.96;101713.36;108439;1276;22006;-77
2022/03/10 00:04:00;;;;;;;14.20;12.60;;;;;;;4.57;64.04;101720.18;108571;1270;24424;-77
2022/03/10 00:06:47;;;;;;;14.50;12.40;;;;;;;4.52;63.96;101726.91;108341;1276;22038;-77
2022/03/10 00:09:33;;;;;;;16.10;14.40;;;;;;;4.41;64.03;101724.49;108515;1273;21982;-77
2022/03/10 00:12:18;;;;;;;16.70;14.90;;;;;;;4.32;64.17;101724.33;108667;1272;22286;-79
2022/03/10 00:14:48;;;;;;;16.00;14.40;;;;;;;4.28;64.28;101727.38;108275;1278;22342;-78
2022/03/10 00:17:20;;;;;;;17.80;16.10;;;;;;;4.25;64.30;101729.13;108295;1279;23052;-78
2022/03/10 00:19:50;;;;;;;17.10;15.40;;;;;;;4.20;64.34;101727.11;108182;1278;21991;-78
2022/03/10 00:22:19;;;;;;;17.40;15.70;;;;;;;4.16;64.43;101727.20;108301;1279;21992;-77
2022/03/10 00:24:52;;;;;;;18.80;16.20;;;;;;;4.11;64.50;101732.91;108448;1273;21996;-78
2022/03/10 00:27:24;;;;;;;18.20;16.40;;;;;;;4.07;64.74;101740.33;108660;1273;21976;-78
2022/03/10 00:30:16;;;;;;;17.30;15.50;;;;;;;4.03;64.80;101747.02;108270;1278;21994;-77
2022/03/10 00:32:53;;;;;;;19.50;17.20;;;;;;;3.97;64.89;101747.89;108359;1274;23079;-77
2022/03/10 00:35:25;;;;;;;19.50;17.60;;;;;;;3.91;64.98;101745.79;108456;1274;22028;-77
2022/03/10 00:38:01;;;;;;;18.30;16.50;;;;;;;3.86;65.12;101745.59;108369;1278;22003;-77
2022/03/10 00:40:31;;;;;;;18.90;16.90;;;;;;;3.82;65.28;101749.98;108354;1276;21994;-78
2022/03/10 00:43:19;;;;;;;20.00;18.10;;;;;;;3.77;65.45;101753.21;108271;1278;21995;-77
2022/03/10 00:45:59;;;;;;;19.40;17.60;;;;;;;3.71;65.53;101758.27;108342;1276;23623;-76
2022/03/10 00:48:28;;;;;;;21.30;19.20;;;;;;;3.66;65.60;101760.52;108278;1278;23093;-77
2022/03/10 00:50:58;;;;;;;23.10;20.80;;;;;;;3.61;65.73;101763.05;108187;1279;193569;-76
2022/03/10 00:53:31;;;;;;;22.00;20.00;;;;;;;3.56;65.83;101765.08;108201;1279;23632;-77
2022/03/10 00:56:06;;;;;;;24.50;20.60;;;;;;;3.50;65.85;101764.04;108704;1270;21981;-76
2022/03/10 00:58:38;;;;;;;22.20;20.10;;;;;;;3.45;66.04;101764.15;109055;1267;21978;-76
2022/03/10 01:01:13;;;;;;;24.70;22.20;;;;;;;3.41;66.08;101770.78;109139;1267;23068;-76
2022/03/10 01:03:43;;;;;;;25.80;23.20;;;;;;;3.37;66.04;101775.23;109456;1265;21995;-75
2022/03/10 01:06:12;;;;;;;27.60;24.90;;;;;;;3.33;66.09;101777.55;109149;1267;24250;-76
2022/03/10 01:08:49;;;;;;;26.20;23.40;;;;;;;3.27;66.13;101779.61;108996;1267;21993;-78
2022/03/10 01:11:21;;;;;;;24.60;22.20;;;;;;;3.22;66.24;101782.16;109203;1267;22044;-78
2022/03/10 01:13:51;;;;;;;25.20;22.50;;;;;;;3.15;66.40;101782.18;109220;1267;22554;-77
2022/03/10 01:16:46;;;;;;;;;;;;;;;;;;;;;
2022/03/10 01:19:16;;;;;;;25.00;22.50;;;;;;;2.99;66.51;101782.88;109263;1267;21980;-77
2022/03/10 01:21:52;;;;;;;27.80;24.80;;;;;;;2.94;66.71;101783.52;108698;1270;22001;-77
2022/03/10 01:24:24;;;;;;;27.30;24.70;;;;;;;2.91;66.97;101779.89;108812;1273;21984;-77
2022/03/10 01:26:54;;;;;;;28.80;26.00;;;;;;;2.88;67.06;101781.27;108703;1273;21979;-77
2022/03/10 01:29:24;;;;;;;28.40;25.80;;;;;;;2.85;67.18;101779.50;108739;1273;22000;-77
2022/03/10 01:31:58;;;;;;;27.30;24.50;;;;;;;2.84;67.37;101777.99;108617;1273;22054;-77
2022/03/10 01:34:35;;;;;;;27.00;24.20;;;;;;;2.82;67.40;101782.95;108675;1273;23732;-77
2022/03/10 01:37:10;;;;;;;24.10;21.70;;;;;;;2.79;67.37;101778.59;108729;1270;23866;-77
2022/03/10 01:39:45;;;;;;;23.20;21.00;;;;;;;2.77;67.48;101778.38;108702;1271;22286;-77
2022/03/10 01:42:23;;;;;;;24.50;21.90;;;;;;;2.72;67.40;101780.55;108566;1270;22049;-77
2022/03/10 01:44:55;;;;;;;25.30;22.70;;;;;;;2.65;67.55;101783.33;108704;1273;22796;-77
2022/03/10 01:47:25;;;;;;;24.90;22.40;;;;;;;2.60;67.62;101790.21;108786;1270;21968;-77
2022/03/10 01:49:54;;;;;;;26.30;23.70;;;;;;;2.55;67.63;101797.42;109085;1267;22840;-76
2022/03/10 01:52:27;;;;;;;32.30;29.20;;;;;;;2.52;67.66;101799.14;109155;1267;21992;-76
2022/03/10 01:55:04;;;;;;;34.90;31.20;;;;;;;2.51;67.67;101799.91;109101;1266;21978;-77
2022/03/10 01:57:36;;;;;;;39.40;33.50;;;;;;;2.48;67.74;101803.38;109210;1267;21976;-76
2022/03/10 02:00:08;;;;;;;38.80;33.70;;;;;;;2.47;67.70;101803.45;109244;1267;21975;-77
2022/03/10 02:02:37;;;;;;;34.40;30.90;;;;;;;2.45;67.72;101802.28;109078;1270;23480;-76
2022/03/10 02:05:08;;;;;;;31.70;28.50;;;;;;;2.45;67.80;101802.48;108798;1273;22439;-77
2022/03/10 02:10:39;;;;;;;28.20;25.50;;;;;;;2.39;67.73;101813.08;108370;1277;21961;-76
2022/03/10 02:13:11;;;;;;;27.50;24.70;;;;;;;2.35;67.89;101812.02;108010;1283;21993;-76
2022/03/10 02:18:31;;;;;;;26.00;23.40;;;;;;;2.33;67.88;101823.97;107851;1283;22035;-76
2022/03/10 02:21:06;;;;;;;27.60;25.00;;;;;;;2.30;67.83;101832.11;107949;1279;23661;-76
2022/03/10 02:23:47;;;;;;;26.60;23.90;;;;;;;2.26;67.78;101835.64;108235;1280;21986;-77
2022/03/10 02:26:17;;;;;;;27.20;24.50;;;;;;;2.21;67.86;101842.64;108514;1273;21984;-77
2022/03/10 02:29:02;;;;;;;27.70;24.90;;;;;;;2.18;67.79;101843.33;108716;1273;23607;-77
2022/03/10 02:31:34;;;;;;;26.20;23.40;;;;;;;2.14;67.73;101846.14;108875;1266;23616;-76
2022/03/10 02:34:04;;;;;;;23.90;21.20;;;;;;;2.12;67.65;101848.47;109135;1267;23699;-77
2022/03/10 02:37:06;;;;;;;24.60;22.00;;;;;;;2.12;67.53;101856.16;109039;1266;24296;-76
2022/03/10 02:39:42;;;;;;;25.50;22.90;;;;;;;2.10;67.34;101861.30;109146;1266;23601;-77
2022/03/10 02:42:13;;;;;;;22.80;20.40;;;;;;;2.08;67.19;101866.95;109134;1266;23010;-77
2022/03/10 02:44:49;;;;;;;24.30;21.80;;;;;;;2.06;67.07;101870.48;109203;1266;23705;-77
2022/03/10 02:47:24;;;;;;;25.90;23.20;;;;;;;2.06;67.02;101874.34;108783;1270;23592;-76
2022/03/10 02:49:59;;;;;;;25.20;22.50;;;;;;;2.04;66.87;101881.70;108816;1268;23614;-78
2022/03/10 02:52:32;;;;;;;27.90;25.00;;;;;;;2.01;66.78;101878.91;108321;1273;24065;-78
2022/03/10 02:55:16;;;;;;;27.80;24.90;;;;;;;1.97;66.55;101886.27;108383;1276;24373;-78
2022/03/10 02:57:54;;;;;;;26.40;23.90;;;;;;;1.91;66.48;101885.13;108630;1274;23759;-78
2022/03/10 03:00:49;;;;;;;25.90;23.40;;;;;;;1.86;66.31;101890.41;108618;1273;22107;-78
2022/03/10 03:03:23;;;;;;;27.50;24.70;;;;;;;1.82;66.34;101890.95;108600;1273;22114;-78
2022/03/10 03:06:01;;;;;;;25.10;22.50;;;;;;;1.81;66.42;101899.55;108631;1276;21989;-78
2022/03/10 03:08:32;;;;;;;24.90;22.40;;;;;;;1.78;66.22;101900.90;108135;1279;22008;-78
2022/03/10 03:11:10;;;;;;;24.70;22.30;;;;;;;1.72;66.26;101901.00;108322;1276;23638;-79
2022/03/10 03:13:40;;;;;;;25.00;22.40;;;;;;;1.67;66.24;101905.56;108193;1280;21995;-78
2022/03/10 03:16:12;;;;;;;27.90;24.50;;;;;;;1.63;66.23;101909.21;107972;1283;23020;-78
2022/03/10 03:18:53;;;;;;;25.30;22.80;;;;;;;1.60;66.34;101918.60;107787;1287;22080;-78
2022/03/10 03:21:25;;;;;;;26.80;24.10;;;;;;;1.56;66.38;101922.27;107521;1287;22121;-79
2022/03/10 03:23:58;;;;;;;27.50;24.60;;;;;;;1.51;66.46;101931.66;107528;1286;22004;-79
2022/03/10 03:26:28;;;;;;;26.90;24.10;;;;;;;1.48;66.40;101937.91;107247;1286;22008;-79
2022/03/10 03:29:00;;;;;;;27.60;24.60;;;;;;;1.43;66.51;101938.98;107686;1286;22142;-78
2022/03/10 03:31:41;;;;;;;28.80;25.10;;;;;;;1.38;66.57;101939.71;108006;1277;23832;-79
2022/03/10 03:34:15;;;;;;;27.60;24.70;;;;;;;1.35;66.52;101943.84;108308;1274;23711;-78
2022/03/10 03:36:45;;;;;;;30.10;27.10;;;;;;;1.32;66.54;101950.59;108151;1277;22004;-78
2022/03/10 03:39:15;;;;;;;29.50;26.50;;;;;;;1.31;66.55;101954.98;108302;1276;23708;-78
2022/03/10 03:41:50;;;;;;;31.20;27.90;;;;;;;1.27;66.55;101958.61;108453;1276;22945;-77
2022/03/10 03:44:23;;;;;;;31.30;28.10;;;;;;;1.24;66.61;101960.85;108458;1270;22256;-76
2022/03/10 03:46:56;;;;;;;32.30;28.80;;;;;;;1.20;66.56;101965.20;108682;1273;22184;-76
2022/03/10 03:49:25;;;;;;;;;;;;;;;1.17;66.67;101975.70;108771;1273;23106;-77
2022/03/10 03:52:02;;;;;;;33.70;30.10;;;;;;;1.09;66.89;101979.38;108714;1273;21997;-77
2022/03/10 03:54:32;;;;;;;32.70;29.40;;;;;;;1.07;67.08;101983.63;108695;1273;21965;-76
2022/03/10 03:57:12;;;;;;;32.50;29.20;;;;;;;1.08;67.01;101984.98;108811;1270;22001;-77
2022/03/10 03:59:48;;;;;;;31.30;28.20;;;;;;;1.09;67.12;101988.58;108464;1276;21997;-77
2022/03/10 04:02:17;;;;;;;35.00;31.40;;;;;;;1.12;67.21;101993.14;108778;1270;23630;-78
2022/03/10 04:04:50;;;;;;;31.40;28.30;;;;;;;1.15;67.25;101995.44;108853;1270;22080;-78
2022/03/10 04:07:19;;;;;;;31.30;28.20;;;;;;;1.17;67.31;101994.13;108826;1271;21979;-77
2022/03/10 04:09:49;;;;;;;32.20;29.00;;;;;;;1.15;67.27;101999.05;108838;1270;23258;-78
2022/03/10 04:12:18;;;;;;;31.70;28.30;;;;;;;1.12;67.23;101998.15;108818;1270;23749;-77
2022/03/10 04:14:52;;;;;;;30.80;27.20;;;;;;;1.11;67.36;102000.63;108849;1270;23769;-76
2022/03/10 04:17:22;;;;;;;25.10;22.10;;;;;;;1.07;67.22;102000.30;108730;1267;23059;-76
2022/03/10 04:20:00;;;;;;;28.70;22.00;;;;;;;0.98;67.17;102008.14;108880;1267;23594;-77
2022/03/10 04:22:37;;;;;;;21.60;19.30;;;;;;;0.89;67.03;102015.98;108919;1266;23731;-76
2022/03/10 04:25:08;;;;;;;17.00;14.90;;;;;;;0.79;66.87;102025.23;109117;1267;22912;-76
2022/03/10 04:27:37;;;;;;;17.90;15.00;;;;;;;0.72;66.84;102028.81;109484;1266;22055;-76
2022/03/10 04:30:07;;;;;;;13.10;11.40;;;;;;;0.65;66.73;102029.63;108819;1267;23589;-78
2022/03/10 04:32:48;;;;;;;15.00;12.40;;;;;;;0.57;66.47;102033.79;108937;1266;21972;-78
2022/03/10 04:35:19;;;;;;;15.00;11.50;;;;;;;0.47;66.34;102037.98;109112;1267;22062;-78
2022/03/10 04:38:01;;;;;;;13.50;10.80;;;;;;;0.37;66.13;102036.84;109062;1267;21978;-77
2022/03/10 04:40:33;;;;;;;10.60;9.50;;;;;;;0.24;66.04;102044.45;109071;1267;23685;-77
2022/03/10 04:43:09;;;;;;;9.70;8.30;;;;;;;0.12;65.88;102049.90;109117;1267;23625;-76
2022/03/10 04:45:39;;;;;;;11.80;9.80;;;;;;;0.02;65.72;102046.34;108941;1267;21989;-75
2022/03/10 04:48:09;;;;;;;13.20;9.20;;;;;;;-0.07;65.64;102047.52;109114;1265;22005;-76
2022/03/10 04:50:58;;;;;;;;;;;;;;;;;;;;;
2022/03/10 04:53:30;;;;;;;10.60;9.40;;;;;;;-0.20;65.57;102054.59;108939;1270;21982;-77
2022/03/10 04:56:06;;;;;;;11.10;9.40;;;;;;;-0.22;65.60;102058.99;108845;1270;23855;-76
2022/03/10 04:58:36;;;;;;;10.60;9.50;;;;;;;-0.23;65.46;102058.88;108884;1270;21954;-76
2022/03/10 05:01:16;;;;;;;13.00;8.50;;;;;;;-0.25;65.51;102065.86;108976;1270;22042;-77
2022/03/10 05:03:55;;;;;;;13.60;9.20;;;;;;;-0.27;65.40;102071.11;108456;1273;24389;-77
2022/03/10 05:06:32;;;;;;;13.10;9.70;;;;;;;-0.29;65.26;102073.30;108668;1273;23666;-81
2022/03/10 05:09:01;;;;;;;13.70;9.40;;;;;;;-0.31;65.25;102074.23;108717;1273;21977;-77
2022/03/10 05:11:33;;;;;;;;;;;;;;;-0.34;65.18;102079.02;108629;1275;23070;-77
2022/03/10 05:14:12;;;;;;;11.40;9.10;;;;;;;-0.44;65.25;102078.32;108658;1273;23058;-76
2022/03/10 05:16:51;;;;;;;13.60;9.80;;;;;;;-0.51;65.38;102078.90;108464;1274;21993;-77
2022/03/10 05:19:25;;;;;;;14.00;9.60;;;;;;;-0.54;65.40;102080.24;108607;1273;23012;-78
2022/03/10 05:21:57;;;;;;;13.20;10.10;;;;;;;-0.60;65.37;102082.69;108115;1276;22110;-78
2022/03/10 05:24:27;;;;;;;18.30;10.30;;;;;;;-0.64;65.45;102088.20;108385;1275;22126;-77
2022/03/10 05:27:01;;;;;;;12.30;10.10;;;;;;;-0.67;65.46;102093.33;108567;1273;21985;-77
2022/03/10 05:29:40;;;;;;;30.70;15.80;;;;;;;-0.69;65.59;102096.31;108435;1273;22002;-77
2022/03/10 05:32:18;;;;;;;10.30;9.20;;;;;;;-0.69;65.64;102101.54;108576;1273;22037;-77
2022/03/10 05:34:50;;;;;;;11.90;9.40;;;;;;;-0.70;65.70;102105.03;108482;1274;23629;-76
2022/03/10 05:37:19;;;;;;;20.70;11.70;;;;;;;-0.72;65.78;102106.27;108347;1276;23095;-77
2022/03/10 05:39:50;;;;;;;21.70;11.70;;;;;;;-0.70;65.87;102112.62;108352;1276;23699;-76
2022/03/10 05:42:28;;;;;;;15.80;10.60;;;;;;;-0.68;65.87;102116.89;108136;1279;23625;-76
2022/03/10 05:44:57;;;;;;;16.00;11.20;;;;;;;-0.67;65.93;102116.84;108017;1279;22038;-77
2022/03/10 05:47:26;;;;;;;15.80;13.20;;;;;;;-0.64;65.95;102121.94;108325;1273;22087;-77
2022/03/10 05:49:56;;;;;;;17.00;13.30;;;;;;;-0.64;65.89;102125.21;108340;1276;22003;-77
2022/03/10 05:52:28;;;;;;;22.10;17.80;;;;;;;-0.64;65.91;102128.52;108479;1273;22065;-76
2022/03/10 05:54:58;;;;;;;19.40;17.30;;;;;;;-0.66;65.88;102132.55;108491;1270;22019;-78
2022/03/10 05:57:27;;;;;;;21.40;17.80;;;;;;;-0.66;66.04;102136.90;108769;1270;22734;-77
2022/03/10 06:00:02;;;;;;;19.10;16.00;;;;;;;-0.66;66.13;102140.69;108847;1267;22929;-78
2022/03/10 06:02:41;;;;;;;24.00;18.60;;;;;;;-0.67;66.15;102146.08;108895;1267;23622;-79
2022/03/10 06:05:11;;;;;;;18.00;16.10;;;;;;;-0.64;66.22;102144.27;109161;1267;22064;-78
2022/03/10 06:07:41;;;;;;;20.60;16.40;;;;;;;-0.61;66.22;102144.17;108995;1265;21975;-78
2022/03/10 06:10:10;;;;;;;23.60;16.30;;;;;;;-0.61;66.15;102146.58;108895;1264;23720;-78
2022/03/10 06:12:40;;;;;;;19.50;15.30;;;;;;;-0.57;66.24;102150.77;108942;1267;23624;-77
2022/03/10 06:15:13;;;;;;;19.70;15.70;;;;;;;-0.54;66.22;102155.02;109003;1266;21969;-78
2022/03/10 06:17:42;;;;;;;24.90;16.50;;;;;;;-0.51;66.34;102159.91;109089;1268;22081;-78
2022/03/10 06:20:12;;;;;;;20.10;16.50;;;;;;;-0.47;66.40;102164.47;108975;1267;22215;-80
2022/03/10 06:22:44;;;;;;;21.80;19.40;;;;;;;-0.45;66.34;102167.17;108594;1273;23733;-79
2022/03/10 06:25:22;;;;;;;23.00;19.20;;;;;;;-0.41;66.33;102175.17;108548;1276;23619;-79
2022/03/10 06:27:55;;;;;;;21.00;15.80;;;;;;;-0.40;66.27;102180.15;108431;1276;23883;-78
2022/03/10 06:30:24;;;;;;;17.10;15.30;;;;;;;-0.43;66.16;102184.04;108568;1276;21998;-78
2022/03/10 06:32:53;;;;;;;21.50;17.20;;;;;;;-0.46;66.24;102183.13;108368;1279;23753;-77
2022/03/10 06:35:23;;;;;;;20.70;16.00;;;;;;;-0.43;66.42;102187.52;108082;1279;22010;-78
2022/03/10 06:37:55;;;;;;;19.40;16.20;;;;;;;-0.39;66.48;102191.02;107832;1283;22076;-77
2022/03/10 06:40:24;;;;;;;20.00;16.10;;;;;;;-0.32;66.58;102193.20;107828;1281;23793;-81
2022/03/10 06:43:02;;;;;;;27.80;19.20;;;;;;;-0.26;66.51;102197.31;108192;1279;22004;-79
2022/03/10 06:45:34;;;;;;;80.80;67.50;;;;;;;-0.22;66.41;102199.61;108209;1277;22007;-79
2022/03/10 06:48:04;;;;;;;19.30;16.60;;;;;;;-0.15;66.51;102204.21;108178;1276;23181;-79
2022/03/10 06:50:53;;;;;;;30.10;21.60;;;;;;;-0.08;66.35;102211.05;108219;1276;21988;-80
2022/03/10 06:53:25;;;;;;;20.40;15.10;;;;;;;-0.04;66.28;102210.40;108316;1276;22764;-80
2022/03/10 06:55:54;;;;;;;21.00;14.90;;;;;;;-0.02;66.15;102211.18;108474;1273;23695;-79
2022/03/10 06:58:33;;;;;;;20.60;14.80;;;;;;;0.02;66.11;102214.02;108629;1273;23780;-80
2022/03/10 07:01:08;;;;;;;38.00;17.00;;;;;;;0.06;66.16;102209.89;108867;1273;22050;-80
2022/03/10 07:03:45;;;;;;;19.80;15.30;;;;;;;0.16;66.47;102215.59;108920;1273;21996;-79
2022/03/10 07:06:18;;;;;;;17.90;14.30;;;;;;;0.32;66.44;102216.05;108764;1272;23621;-80
2022/03/10 07:08:54;;;;;;;17.90;13.80;;;;;;;0.48;66.00;102215.79;108901;1273;22140;-77
2022/03/10 07:11:47;;;;;;;24.50;14.90;;;;;;;0.62;65.73;102218.06;108749;1270;21998;-78
2022/03/10 07:14:21;;;;;;;19.30;14.40;;;;;;;0.84;66.03;102221.20;108763;1267;22446;-78
2022/03/10 07:16:56;;;;;;;17.60;14.70;;;;;;;1.11;65.71;102227.09;109032;1267;23873;-78
2022/03/10 07:19:26;;;;;;;21.40;15.10;;;;;;;1.37;65.26;102229.52;109038;1273;22402;-78
2022/03/10 07:22:03;;;;;;;18.80;14.70;;;;;;;1.73;65.72;102234.46;108566;1273;22055;-78
2022/03/10 07:25:05;;;;;;;23.00;15.40;;;;;;;2.11;65.20;102239.58;108400;1276;22379;-78
2022/03/10 07:27:40;;;;;;;25.50;19.30;;;;;;;2.52;63.77;102247.85;108433;1276;23700;-78
2022/03/10 07:30:11;;;;;;;33.00;26.90;;;;;;;2.67;61.30;102257.63;108339;1275;21974;-77
2022/03/10 07:32:45;;;;;;;;;;;;;;;2.61;59.42;102261.34;108396;1276;22125;-78
2022/03/10 07:35:17;;;;;;;17.70;11.80;;;;;;;2.61;59.54;102251.97;108098;1279;22023;-77
2022/03/10 07:37:48;;;;;;;18.10;12.90;;;;;;;2.80;59.48;102258.77;108235;1274;21993;-77
2022/03/10 07:40:17;;;;;;;17.60;13.40;;;;;;;2.97;58.12;102258.34;108426;1276;24341;-77
2022/03/10 07:42:47;;;;;;;16.90;11.40;;;;;;;2.98;56.88;102259.14;108201;1276;22011;-78
2022/03/10 07:45:17;;;;;;;21.70;14.90;;;;;;;2.96;56.15;102259.06;108371;1276;22009;-78
2022/03/10 07:47:50;;;;;;;19.20;12.10;;;;;;;3.10;56.28;102262.25;108352;1277;22522;-78
2022/03/10 07:50:32;;;;;;;20.70;13.30;;;;;;;3.25;55.65;102259.78;108338;1275;22037;-78
2022/03/10 07:53:15;;;;;;;22.70;13.50;;;;;;;3.39;54.88;102264.31;108449;1273;23027;-79
2022/03/10 07:55:54;;;;;;;15.90;12.10;;;;;;;3.58;54.74;102266.54;108689;1270;21988;-80
2022/03/10 07:58:25;;;;;;;18.50;13.60;;;;;;;3.71;53.59;102271.67;108411;1276;23701;-78
2022/03/10 08:00:57;;;;;;;17.00;14.20;;;;;;;3.73;52.67;102276.58;108546;1273;23165;-77
2022/03/10 08:03:27;;;;;;;18.10;11.90;;;;;;;3.67;52.04;102279.48;108751;1270;21987;-78
2022/03/10 08:06:00;;;;;;;35.50;21.30;;;;;;;3.56;51.18;102279.51;108730;1270;23614;-80
2022/03/10 08:08:38;;;;;;;27.70;16.10;;;;;;;3.54;51.78;102277.38;108421;1276;22511;-80
2022/03/10 08:11:11;;;;;;;23.70;14.50;;;;;;;3.73;52.24;102278.13;108043;1282;22202;-79
2022/03/10 08:13:42;;;;;;;21.80;14.30;;;;;;;3.83;50.92;102275.92;107997;1281;23657;-80
2022/03/10 08:16:12;;;;;;;20.80;14.30;;;;;;;3.86;50.59;102277.52;108051;1276;23546;-79
2022/03/10 08:18:45;;;;;;;15.40;11.30;;;;;;;3.89;50.37;102276.69;108449;1276;22037;-78
2022/03/10 08:21:17;;;;;;;20.50;13.80;;;;;;;3.99;50.12;102279.98;108617;1276;22015;-75
2022/03/10 08:23:47;;;;;;;17.20;12.10;;;;;;;4.12;49.82;102284.56;107934;1281;22007;-79
2022/03/10 08:26:19;;;;;;;14.50;10.70;;;;;;;4.20;48.93;102282.92;108052;1282;22010;-80
2022/03/10 08:28:52;;;;;;;13.80;11.00;;;;;;;4.29;49.01;102279.65;107583;1281;22184;-79
2022/03/10 08:31:24;;;;;;;17.90;14.30;;;;;;;4.48;48.41;102282.34;107705;1286;23143;-79
2022/03/10 08:34:04;;;;;;;12.90;10.80;;;;;;;4.67;48.28;102278.35;108152;1280;23667;-79
2022/03/10 08:36:36;;;;;;;23.40;13.20;;;;;;;4.85;47.63;102272.86;107879;1285;22027;-80
2022/03/10 08:39:07;;;;;;;13.80;11.00;;;;;;;4.97;46.69;102278.48;107481;1288;22136;-78
2022/03/10 08:41:39;;;;;;;18.70;10.90;;;;;;;5.04;46.50;102278.06;107803;1285;22004;-78
2022/03/10 08:44:12;;;;;;;13.80;10.20;;;;;;;5.14;45.90;102275.80;107908;1284;21994;-79
2022/03/10 08:46:42;;;;;;;18.40;9.40;;;;;;;5.17;45.50;102278.61;107910;1279;21993;-78
2022/03/10 08:49:13;;;;;;;11.80;9.30;;;;;;;5.15;44.70;102288.65;108228;1276;23071;-78
2022/03/10 08:51:44;;;;;;;14.50;10.50;;;;;;;4.98;44.00;102283.31;108545;1276;21987;-79
2022/03/10 08:54:16;;;;;;;13.60;9.40;;;;;;;4.85;44.05;102288.56;108118;1278;22102;-77
2022/03/10 08:56:51;;;;;;;17.20;10.10;;;;;;;4.80;44.06;102279.90;108391;1273;23042;-77
2022/03/10 08:59:23;;;;;;;14.30;9.70;;;;;;;4.99;44.59;102287.47;108801;1273;21949;-78
2022/03/10 09:01:52;;;;;;;12.80;9.90;;;;;;;5.12;43.92;102281.45;108557;1273;22182;-79
2022/03/10 09:04:22;;;;;;;14.10;12.50;;;;;;;5.34;43.65;102283.20;108430;1278;23043;-79
2022/03/10 09:07:02;;;;;;;38.60;26.80;;;;;;;5.62;43.18;102280.77;108421;1278;22005;-78
2022/03/10 09:09:31;;;;;;;;;;;;;;;5.73;41.31;102274.51;108346;1278;23591;-78
2022/03/10 09:12:02;;;;;;;18.40;12.60;;;;;;;5.80;41.45;102280.38;108228;1276;23064;-79
2022/03/10 09:14:32;;;;;;;21.00;12.60;;;;;;;6.00;41.26;102289.40;108350;1279;23085;-79
2022/03/10 09:17:04;;;;;;;;;;;;;;;6.18;40.75;102286.77;108297;1279;23759;-78
2022/03/10 09:19:34;;;;;;;18.60;10.50;;;;;;;6.35;40.33;102291.89;108403;1279;21970;-78
2022/03/10 09:22:04;;;;;;;21.60;13.60;;;;;;;6.23;39.31;102287.54;108132;1276;21987;-78
2022/03/10 09:24:37;;;;;;;21.50;13.80;;;;;;;6.16;39.60;102284.78;108089;1279;23061;-78
2022/03/10 09:27:09;;;;;;;18.90;10.40;;;;;;;6.26;39.83;102282.93;108249;1276;24322;-78
2022/03/10 09:29:41;;;;;;;13.70;9.50;;;;;;;6.46;39.63;102288.38;108426;1275;21954;-79
2022/03/10 09:32:14;;;;;;;13.60;10.50;;;;;;;6.63;39.24;102288.05;108519;1270;21994;-79
2022/03/10 09:34:46;;;;;;;11.40;7.90;;;;;;;6.68;38.61;102295.61;109021;1270;23757;-80
2022/03/10 09:37:16;;;;;;;10.40;8.60;;;;;;;6.69;38.57;102294.02;108953;1270;23049;-79
2022/03/10 09:39:49;;;;;;;8.00;6.90;;;;;;;6.82;38.68;102291.09;108619;1270;21981;-80
2022/03/10 09:42:21;;;;;;;16.80;9.40;;;;;;;7.00;38.32;102293.08;108884;1270;21978;-79
2022/03/10 09:44:52;;;;;;;10.30;6.90;;;;;;;7.14;37.67;102299.94;108772;1270;21984;-78
2022/03/10 09:47:26;;;;;;;10.60;7.60;;;;;;;7.12;36.93;102299.73;108720;1273;21996;-79
2022/03/10 09:49:55;;;;;;;12.00;8.20;;;;;;;7.27;37.36;102302.95;108523;1273;21995;-78
2022/03/10 09:52:28;;;;;;;13.00;9.50;;;;;;;7.44;36.42;102299.05;108544;1273;22303;-78
2022/03/10 09:55:08;;;;;;;13.40;6.70;;;;;;;7.58;36.30;102298.30;108544;1273;22231;-77
2022/03/10 09:57:44;;;;;;;13.50;8.80;;;;;;;7.55;34.88;102300.60;108548;1270;22007;-79
2022/03/10 10:00:18;;;;;;;19.40;8.50;;;;;;;7.45;35.03;102294.77;108775;1273;23585;-79
2022/03/10 10:02:51;;;;;;;10.80;7.10;;;;;;;7.50;34.93;102291.07;108432;1276;22082;-78
2022/03/10 10:05:39;;;;;;;12.70;8.80;;;;;;;7.63;34.83;102291.66;108443;1276;22999;-79
2022/03/10 10:08:17;;;;;;;10.50;7.70;;;;;;;7.78;34.43;102299.77;108413;1276;21998;-78
2022/03/10 10:10:50;;;;;;;9.20;6.70;;;;;;;8.01;34.22;102302.84;108515;1275;22017;-78
2022/03/10 10:13:29;;;;;;;11.30;6.50;;;;;;;8.34;34.28;102298.48;108553;1270;23780;-78
2022/03/10 10:16:13;;;;;;;9.20;6.40;;;;;;;8.70;33.80;102301.91;108512;1273;23701;-77
2022/03/10 10:18:53;;;;;;;14.50;8.40;;;;;;;8.90;33.05;102301.56;108475;1273;23737;-78
2022/03/10 10:21:29;;;;;;;17.00;9.30;;;;;;;9.31;33.49;102301.64;108642;1270;21984;-78
2022/03/10 10:23:58;;;;;;;7.00;6.10;;;;;;;9.89;32.96;102303.26;109020;1268;23683;-79
2022/03/10 10:26:35;;;;;;;;;;;;;;;10.51;31.81;102306.88;108802;1270;21969;-77
2022/03/10 10:29:15;;;;;;;7.50;6.00;;;;;;;10.83;31.04;102305.42;108967;1270;22000;-78
2022/03/10 10:31:47;;;;;;;10.10;6.60;;;;;;;11.48;31.24;102304.39;108870;1270;22000;-79
2022/03/10 10:34:36;;;;;;;11.30;6.90;;;;;;;12.16;29.99;102305.39;109143;1264;22104;-77
2022/03/10 10:37:06;;;;;;;11.30;6.80;;;;;;;12.83;29.57;102308.33;109203;1266;22370;-77
2022/03/10 10:39:52;;;;;;;13.80;8.30;;;;;;;13.39;28.04;102312.20;109227;1266;21983;-78
2022/03/10 10:42:26;;;;;;;7.30;5.20;;;;;;;13.64;27.27;102312.23;109207;1266;22050;-77
2022/03/10 10:45:01;;;;;;;6.40;5.50;;;;;;;14.06;27.04;102311.20;108872;1267;23111;-77
2022/03/10 10:47:30;;;;;;;6.40;5.00;;;;;;;14.08;24.65;102309.30;108959;1267;21979;-77
2022/03/10 10:50:06;;;;;;;7.70;5.70;;;;;;;14.09;24.73;102312.37;108968;1267;22011;-77
2022/03/10 10:52:40;;;;;;;10.80;7.00;;;;;;;14.44;25.26;102308.58;109296;1265;23816;-77
2022/03/10 10:55:13;;;;;;;10.60;7.10;;;;;;;15.05;24.62;102310.67;108617;1270;21985;-78
2022/03/10 10:57:44;;;;;;;10.20;6.00;;;;;;;15.20;22.88;102323.77;108386;1276;23011;-78
2022/03/10 11:00:14;;;;;;;7.00;5.70;;;;;;;15.32;23.39;102323.84;108462;1276;23095;-77
2022/03/10 11:02:43;;;;;;;9.20;5.80;;;;;;;15.84;23.23;102319.55;108417;1276;21997;-76
2022/03/10 11:05:14;;;;;;;10.50;5.70;;;;;;;16.53;23.13;102313.07;108464;1275;23797;-78
2022/03/10 11:07:44;;;;;;;13.00;9.70;;;;;;;17.05;21.69;102322.53;108425;1276;23112;-79
2022/03/10 11:10:14;;;;;;;14.50;10.10;;;;;;;16.57;19.73;102324.54;108443;1276;22055;-78
2022/03/10 11:12:44;;;;;;;10.60;6.50;;;;;;;15.82;20.67;102325.48;108478;1275;23641;-78
2022/03/10 11:15:14;;;;;;;12.60;6.80;;;;;;;15.03;20.18;102326.94;108570;1267;22095;-78
2022/03/10 11:17:47;;;;;;;7.10;5.80;;;;;;;13.72;20.37;102321.20;109013;1267;22084;-79
2022/03/10 11:20:17;;;;;;;9.30;6.60;;;;;;;12.42;21.15;102313.81;108959;1270;23166;-78
2022/03/10 11:23:22;;;;;;;10.00;8.20;;;;;;;11.34;21.56;102311.00;108851;1270;23721;-78
2022/03/10 11:26:19;;;;;;;7.00;5.70;;;;;;;9.86;21.72;102314.55;108901;1270;22027;-77
2022/03/10 11:28:50;;;;;;;8.80;5.80;;;;;;;8.16;22.52;102308.09;108822;1270;23768;-77
2022/03/10 11:31:23;;;;;;;8.60;5.60;;;;;;;7.26;23.58;102314.56;108485;1276;22571;-77
2022/03/10 11:33:55;;;;;;;8.00;5.50;;;;;;;6.41;24.47;102308.13;108488;1273;22792;-77
2022/03/10 11:36:31;;;;;;;10.90;6.30;;;;;;;5.80;25.32;102295.41;108469;1276;23122;-81
2022/03/10 11:39:10;;;;;;;17.30;9.90;;;;;;;5.42;25.96;102296.58;108488;1273;22097;-77
2022/03/10 11:41:46;;;;;;;15.50;8.60;;;;;;;5.02;26.51;102301.09;108641;1273;23617;-77
2022/03/10 11:44:21;;;;;;;13.40;8.50;;;;;;;4.74;27.05;102302.58;108815;1270;24334;-78
2022/03/10 11:46:59;;;;;;;20.30;13.70;;;;;;;4.56;27.43;102308.95;108413;1276;22245;-78
2022/03/10 11:49:41;;;;;;;15.40;9.20;;;;;;;4.30;27.74;102304.02;108264;1273;25051;-78
2022/03/10 11:52:28;;;;;;;11.40;6.70;;;;;;;4.03;28.07;102303.48;108504;1273;22039;-76